sensor_id;sensor_type;location;lat;lon;timestamp;temperature;humidity
75961;SHT30;64644;48.914;2.254;2023-06-22T00:01:03;24.54;58.55
75961;SHT30;64644;48.914;2.254;2023-06-22T00:03:28;24.54;58.53
75961;SHT30;64644;48.914;2.254;2023-06-22T00:05:54;24.54;58.49
75961;SHT30;64644;48.914;2.254;2023-06-22T00:08:19;24.51;58.61
75961;SHT30;64644;48.914;2.254;2023-06-22T00:10:46;24.49;58.87
75961;SHT30;64644;48.914;2.254;2023-06-22T00:13:12;24.51;58.69
75961;SHT30;64644;48.914;2.254;2023-06-22T00:15:40;24.48;58.67
75961;SHT30;64644;48.914;2.254;2023-06-22T00:18:06;24.47;58.56
75961;SHT30;64644;48.914;2.254;2023-06-22T00:20:32;24.48;58.60
75961;SHT30;64644;48.914;2.254;2023-06-22T00:22:59;24.47;58.55
75961;SHT30;64644;48.914;2.254;2023-06-22T00:25:24;24.45;58.60
75961;SHT30;64644;48.914;2.254;2023-06-22T00:27:50;24.44;58.65
75961;SHT30;64644;48.914;2.254;2023-06-22T00:30:16;24.45;58.58
75961;SHT30;64644;48.914;2.254;2023-06-22T00:32:45;24.47;58.53
75961;SHT30;64644;48.914;2.254;2023-06-22T00:35:11;24.45;58.55
75961;SHT30;64644;48.914;2.254;2023-06-22T00:37:37;24.44;58.66
75961;SHT30;64644;48.914;2.254;2023-06-22T00:40:04;24.44;58.63
75961;SHT30;64644;48.914;2.254;2023-06-22T00:42:30;24.38;58.61
75961;SHT30;64644;48.914;2.254;2023-06-22T00:44:55;24.37;58.62
75961;SHT30;64644;48.914;2.254;2023-06-22T00:47:21;24.35;58.70
75961;SHT30;64644;48.914;2.254;2023-06-22T00:49:48;24.35;58.72
75961;SHT30;64644;48.914;2.254;2023-06-22T00:52:17;24.32;58.67
75961;SHT30;64644;48.914;2.254;2023-06-22T00:54:50;24.34;58.61
75961;SHT30;64644;48.914;2.254;2023-06-22T00:57:17;24.32;58.67
75961;SHT30;64644;48.914;2.254;2023-06-22T00:59:44;24.25;58.58
75961;SHT30;64644;48.914;2.254;2023-06-22T01:02:09;24.25;58.63
75961;SHT30;64644;48.914;2.254;2023-06-22T01:04:37;24.27;58.67
75961;SHT30;64644;48.914;2.254;2023-06-22T01:07:05;24.25;58.74
75961;SHT30;64644;48.914;2.254;2023-06-22T01:09:44;24.22;58.67
75961;SHT30;64644;48.914;2.254;2023-06-22T01:12:12;24.21;58.77
75961;SHT30;64644;48.914;2.254;2023-06-22T01:14:47;24.20;58.66
75961;SHT30;64644;48.914;2.254;2023-06-22T01:17:15;24.17;58.73
75961;SHT30;64644;48.914;2.254;2023-06-22T01:20:00;24.16;58.68
75961;SHT30;64644;48.914;2.254;2023-06-22T01:22:30;24.16;58.72
75961;SHT30;64644;48.914;2.254;2023-06-22T01:25:10;24.11;58.71
75961;SHT30;64644;48.914;2.254;2023-06-22T01:27:50;24.10;58.73
75961;SHT30;64644;48.914;2.254;2023-06-22T01:30:18;24.07;58.78
75961;SHT30;64644;48.914;2.254;2023-06-22T01:32:44;24.07;58.86
75961;SHT30;64644;48.914;2.254;2023-06-22T01:35:12;24.04;58.92
75961;SHT30;64644;48.914;2.254;2023-06-22T01:37:38;24.06;58.89
75961;SHT30;64644;48.914;2.254;2023-06-22T01:40:04;24.03;58.92
75961;SHT30;64644;48.914;2.254;2023-06-22T01:42:31;24.03;58.94
75961;SHT30;64644;48.914;2.254;2023-06-22T01:44:58;24.00;58.56
75961;SHT30;64644;48.914;2.254;2023-06-22T01:47:24;23.99;58.65
75961;SHT30;64644;48.914;2.254;2023-06-22T01:49:51;23.97;58.78
75961;SHT30;64644;48.914;2.254;2023-06-22T01:52:17;23.99;58.91
75961;SHT30;64644;48.914;2.254;2023-06-22T01:54:43;23.99;58.82
75961;SHT30;64644;48.914;2.254;2023-06-22T01:57:08;24.00;58.73
75961;SHT30;64644;48.914;2.254;2023-06-22T01:59:39;23.99;58.63
75961;SHT30;64644;48.914;2.254;2023-06-22T02:02:09;23.99;58.63
75961;SHT30;64644;48.914;2.254;2023-06-22T02:04:57;23.97;58.65
75961;SHT30;64644;48.914;2.254;2023-06-22T02:07:29;23.96;58.65
75961;SHT30;64644;48.914;2.254;2023-06-22T02:09:58;23.92;58.61
75961;SHT30;64644;48.914;2.254;2023-06-22T02:12:25;23.90;58.68
75961;SHT30;64644;48.914;2.254;2023-06-22T02:14:53;23.92;58.67
75961;SHT30;64644;48.914;2.254;2023-06-22T02:17:18;23.93;58.62
75961;SHT30;64644;48.914;2.254;2023-06-22T02:19:44;23.92;58.58
75961;SHT30;64644;48.914;2.254;2023-06-22T02:22:09;23.92;58.64
75961;SHT30;64644;48.914;2.254;2023-06-22T02:24:35;23.92;58.65
75961;SHT30;64644;48.914;2.254;2023-06-22T02:27:02;23.89;58.58
75961;SHT30;64644;48.914;2.254;2023-06-22T02:29:28;23.87;58.59
75961;SHT30;64644;48.914;2.254;2023-06-22T02:31:54;23.89;58.59
75961;SHT30;64644;48.914;2.254;2023-06-22T02:34:21;23.87;58.56
75961;SHT30;64644;48.914;2.254;2023-06-22T02:36:47;23.87;58.63
75961;SHT30;64644;48.914;2.254;2023-06-22T02:39:20;23.86;58.54
75961;SHT30;64644;48.914;2.254;2023-06-22T02:41:48;23.83;58.58
75961;SHT30;64644;48.914;2.254;2023-06-22T02:44:14;23.80;58.57
75961;SHT30;64644;48.914;2.254;2023-06-22T02:46:40;23.82;58.60
75961;SHT30;64644;48.914;2.254;2023-06-22T02:49:06;23.83;58.47
75961;SHT30;64644;48.914;2.254;2023-06-22T02:51:33;23.82;58.49
75961;SHT30;64644;48.914;2.254;2023-06-22T02:53:59;23.83;58.52
75961;SHT30;64644;48.914;2.254;2023-06-22T02:56:25;23.80;58.50
75961;SHT30;64644;48.914;2.254;2023-06-22T02:58:52;23.86;58.53
75961;SHT30;64644;48.914;2.254;2023-06-22T03:01:18;23.83;58.56
75961;SHT30;64644;48.914;2.254;2023-06-22T03:03:49;23.87;58.57
75961;SHT30;64644;48.914;2.254;2023-06-22T03:06:15;23.86;58.34
75961;SHT30;64644;48.914;2.254;2023-06-22T03:08:40;23.84;58.34
75961;SHT30;64644;48.914;2.254;2023-06-22T03:11:07;23.84;58.47
75961;SHT30;64644;48.914;2.254;2023-06-22T03:13:32;23.83;58.46
75961;SHT30;64644;48.914;2.254;2023-06-22T03:15:58;23.82;58.54
75961;SHT30;64644;48.914;2.254;2023-06-22T03:18:23;23.82;58.59
75961;SHT30;64644;48.914;2.254;2023-06-22T03:20:48;23.79;58.36
75961;SHT30;64644;48.914;2.254;2023-06-22T03:23:14;23.80;58.32
75961;SHT30;64644;48.914;2.254;2023-06-22T03:25:40;23.79;58.47
75961;SHT30;64644;48.914;2.254;2023-06-22T03:28:06;23.77;58.36
75961;SHT30;64644;48.914;2.254;2023-06-22T03:30:31;23.79;58.39
75961;SHT30;64644;48.914;2.254;2023-06-22T03:32:57;23.77;58.49
75961;SHT30;64644;48.914;2.254;2023-06-22T03:35:22;23.76;58.39
75961;SHT30;64644;48.914;2.254;2023-06-22T03:37:47;23.72;58.45
75961;SHT30;64644;48.914;2.254;2023-06-22T03:40:13;23.75;58.61
75961;SHT30;64644;48.914;2.254;2023-06-22T03:42:38;23.72;58.65
75961;SHT30;64644;48.914;2.254;2023-06-22T03:45:04;23.70;58.61
75961;SHT30;64644;48.914;2.254;2023-06-22T03:47:29;23.69;58.51
75961;SHT30;64644;48.914;2.254;2023-06-22T03:49:55;23.65;58.70
75961;SHT30;64644;48.914;2.254;2023-06-22T03:52:21;23.66;58.72
75961;SHT30;64644;48.914;2.254;2023-06-22T03:54:47;23.69;58.80
75961;SHT30;64644;48.914;2.254;2023-06-22T03:57:13;23.65;58.65
75961;SHT30;64644;48.914;2.254;2023-06-22T03:59:38;23.62;58.65
75961;SHT30;64644;48.914;2.254;2023-06-22T04:02:04;23.62;58.84
75961;SHT30;64644;48.914;2.254;2023-06-22T04:04:29;23.63;58.82
75961;SHT30;64644;48.914;2.254;2023-06-22T04:06:54;23.62;58.85
75961;SHT30;64644;48.914;2.254;2023-06-22T04:09:20;23.62;58.96
75961;SHT30;64644;48.914;2.254;2023-06-22T04:11:46;23.62;59.10
75961;SHT30;64644;48.914;2.254;2023-06-22T04:14:12;23.62;59.09
75961;SHT30;64644;48.914;2.254;2023-06-22T04:16:37;23.61;59.15
75961;SHT30;64644;48.914;2.254;2023-06-22T04:19:02;23.61;59.39
75961;SHT30;64644;48.914;2.254;2023-06-22T04:21:28;23.61;59.29
75961;SHT30;64644;48.914;2.254;2023-06-22T04:23:53;23.62;59.35
75961;SHT30;64644;48.914;2.254;2023-06-22T04:26:19;23.63;59.36
75961;SHT30;64644;48.914;2.254;2023-06-22T04:28:46;23.61;59.31
75961;SHT30;64644;48.914;2.254;2023-06-22T04:31:19;23.59;59.37
75961;SHT30;64644;48.914;2.254;2023-06-22T04:33:45;23.63;59.51
75961;SHT30;64644;48.914;2.254;2023-06-22T04:36:10;23.61;59.35
75961;SHT30;64644;48.914;2.254;2023-06-22T04:38:38;23.61;59.39
75961;SHT30;64644;48.914;2.254;2023-06-22T04:41:04;23.61;59.38
75961;SHT30;64644;48.914;2.254;2023-06-22T04:43:29;23.61;59.49
75961;SHT30;64644;48.914;2.254;2023-06-22T04:45:56;23.56;59.71
75961;SHT30;64644;48.914;2.254;2023-06-22T04:48:21;23.59;59.99
75961;SHT30;64644;48.914;2.254;2023-06-22T04:50:47;23.58;60.17
75961;SHT30;64644;48.914;2.254;2023-06-22T04:53:12;23.58;60.35
75961;SHT30;64644;48.914;2.254;2023-06-22T04:55:38;23.55;60.54
75961;SHT30;64644;48.914;2.254;2023-06-22T04:58:07;23.52;60.81
75961;SHT30;64644;48.914;2.254;2023-06-22T05:00:33;23.51;60.97
75961;SHT30;64644;48.914;2.254;2023-06-22T05:03:01;23.49;61.17
75961;SHT30;64644;48.914;2.254;2023-06-22T05:05:28;23.48;61.22
75961;SHT30;64644;48.914;2.254;2023-06-22T05:07:56;23.49;61.30
75961;SHT30;64644;48.914;2.254;2023-06-22T05:10:25;23.47;61.48
75961;SHT30;64644;48.914;2.254;2023-06-22T05:12:50;23.45;61.75
75961;SHT30;64644;48.914;2.254;2023-06-22T05:15:15;23.44;61.99
75961;SHT30;64644;48.914;2.254;2023-06-22T05:17:41;23.44;62.21
75961;SHT30;64644;48.914;2.254;2023-06-22T05:20:12;23.44;62.39
75961;SHT30;64644;48.914;2.254;2023-06-22T05:22:39;23.42;62.60
75961;SHT30;64644;48.914;2.254;2023-06-22T05:25:07;23.39;62.62
75961;SHT30;64644;48.914;2.254;2023-06-22T05:27:33;23.37;62.62
75961;SHT30;64644;48.914;2.254;2023-06-22T05:29:58;23.34;62.96
75961;SHT30;64644;48.914;2.254;2023-06-22T05:32:24;23.32;63.11
75961;SHT30;64644;48.914;2.254;2023-06-22T05:34:49;23.30;63.29
75961;SHT30;64644;48.914;2.254;2023-06-22T05:37:15;23.28;63.62
75961;SHT30;64644;48.914;2.254;2023-06-22T05:39:40;23.25;63.77
75961;SHT30;64644;48.914;2.254;2023-06-22T05:42:06;23.21;63.93
75961;SHT30;64644;48.914;2.254;2023-06-22T05:44:32;23.17;64.24
75961;SHT30;64644;48.914;2.254;2023-06-22T05:46:59;23.14;64.52
75961;SHT30;64644;48.914;2.254;2023-06-22T05:49:24;23.08;64.79
75961;SHT30;64644;48.914;2.254;2023-06-22T05:51:55;23.02;65.15
75961;SHT30;64644;48.914;2.254;2023-06-22T05:54:20;23.00;65.43
75961;SHT30;64644;48.914;2.254;2023-06-22T05:56:46;22.97;65.74
75961;SHT30;64644;48.914;2.254;2023-06-22T05:59:11;22.92;66.08
75961;SHT30;64644;48.914;2.254;2023-06-22T06:01:37;22.87;66.22
75961;SHT30;64644;48.914;2.254;2023-06-22T06:04:03;22.83;66.37
75961;SHT30;64644;48.914;2.254;2023-06-22T06:06:29;22.79;66.50
75961;SHT30;64644;48.914;2.254;2023-06-22T06:08:55;22.75;66.62
75961;SHT30;64644;48.914;2.254;2023-06-22T06:11:21;22.70;66.73
75961;SHT30;64644;48.914;2.254;2023-06-22T06:13:46;22.63;67.05
75961;SHT30;64644;48.914;2.254;2023-06-22T06:16:12;22.65;67.26
75961;SHT30;64644;48.914;2.254;2023-06-22T06:18:37;22.62;67.24
75961;SHT30;64644;48.914;2.254;2023-06-22T06:21:03;22.59;67.45
75961;SHT30;64644;48.914;2.254;2023-06-22T06:23:28;22.55;67.57
75961;SHT30;64644;48.914;2.254;2023-06-22T06:25:53;22.49;67.70
75961;SHT30;64644;48.914;2.254;2023-06-22T06:28:19;22.45;67.94
75961;SHT30;64644;48.914;2.254;2023-06-22T06:30:44;22.44;68.02
75961;SHT30;64644;48.914;2.254;2023-06-22T06:33:12;22.38;68.28
75961;SHT30;64644;48.914;2.254;2023-06-22T06:35:37;22.35;68.34
75961;SHT30;64644;48.914;2.254;2023-06-22T06:38:03;22.34;68.63
75961;SHT30;64644;48.914;2.254;2023-06-22T06:40:28;22.25;68.74
75961;SHT30;64644;48.914;2.254;2023-06-22T06:42:53;22.21;68.84
75961;SHT30;64644;48.914;2.254;2023-06-22T06:45:20;22.18;69.11
75961;SHT30;64644;48.914;2.254;2023-06-22T06:47:49;22.15;69.28
75961;SHT30;64644;48.914;2.254;2023-06-22T06:50:15;22.13;69.53
75961;SHT30;64644;48.914;2.254;2023-06-22T06:52:41;22.14;69.54
75961;SHT30;64644;48.914;2.254;2023-06-22T06:55:07;22.11;69.56
75961;SHT30;64644;48.914;2.254;2023-06-22T06:57:34;22.07;69.54
75961;SHT30;64644;48.914;2.254;2023-06-22T06:59:59;22.04;69.58
75961;SHT30;64644;48.914;2.254;2023-06-22T07:02:25;21.97;69.57
75961;SHT30;64644;48.914;2.254;2023-06-22T07:04:52;21.96;69.79
75961;SHT30;64644;48.914;2.254;2023-06-22T07:07:18;21.92;70.05
75961;SHT30;64644;48.914;2.254;2023-06-22T07:09:43;21.92;70.27
75961;SHT30;64644;48.914;2.254;2023-06-22T07:12:09;21.89;70.40
75961;SHT30;64644;48.914;2.254;2023-06-22T07:14:34;21.89;70.51
75961;SHT30;64644;48.914;2.254;2023-06-22T07:16:59;21.90;70.56
75961;SHT30;64644;48.914;2.254;2023-06-22T07:19:26;21.83;70.69
75961;SHT30;64644;48.914;2.254;2023-06-22T07:21:55;21.85;70.78
75961;SHT30;64644;48.914;2.254;2023-06-22T07:24:21;21.80;70.90
75961;SHT30;64644;48.914;2.254;2023-06-22T07:26:47;21.80;70.90
75961;SHT30;64644;48.914;2.254;2023-06-22T07:29:13;21.82;70.85
75961;SHT30;64644;48.914;2.254;2023-06-22T07:31:39;21.80;71.03
75961;SHT30;64644;48.914;2.254;2023-06-22T07:34:06;21.79;71.12
75961;SHT30;64644;48.914;2.254;2023-06-22T07:36:31;21.78;71.00
75961;SHT30;64644;48.914;2.254;2023-06-22T07:38:56;21.78;71.08
75961;SHT30;64644;48.914;2.254;2023-06-22T07:41:22;21.75;71.20
75961;SHT30;64644;48.914;2.254;2023-06-22T07:43:47;21.73;71.10
75961;SHT30;64644;48.914;2.254;2023-06-22T07:46:13;21.72;71.22
75961;SHT30;64644;48.914;2.254;2023-06-22T07:48:38;21.66;71.30
75961;SHT30;64644;48.914;2.254;2023-06-22T07:51:04;21.67;71.38
75961;SHT30;64644;48.914;2.254;2023-06-22T07:53:31;21.63;71.42
75961;SHT30;64644;48.914;2.254;2023-06-22T07:55:56;21.63;71.48
75961;SHT30;64644;48.914;2.254;2023-06-22T07:58:21;21.65;71.59
75961;SHT30;64644;48.914;2.254;2023-06-22T08:00:47;21.63;71.68
75961;SHT30;64644;48.914;2.254;2023-06-22T08:03:14;21.65;71.92
75961;SHT30;64644;48.914;2.254;2023-06-22T08:05:40;21.69;71.94
75961;SHT30;64644;48.914;2.254;2023-06-22T08:08:05;21.67;72.00
75961;SHT30;64644;48.914;2.254;2023-06-22T08:10:30;21.72;72.21
75961;SHT30;64644;48.914;2.254;2023-06-22T08:12:56;21.73;71.99
75961;SHT30;64644;48.914;2.254;2023-06-22T08:15:21;21.69;71.99
75961;SHT30;64644;48.914;2.254;2023-06-22T08:17:47;21.70;71.92
75961;SHT30;64644;48.914;2.254;2023-06-22T08:20:12;21.66;71.97
75961;SHT30;64644;48.914;2.254;2023-06-22T08:22:41;21.69;72.17
75961;SHT30;64644;48.914;2.254;2023-06-22T08:25:08;21.70;72.18
75961;SHT30;64644;48.914;2.254;2023-06-22T08:27:33;21.75;72.25
75961;SHT30;64644;48.914;2.254;2023-06-22T08:29:59;21.73;72.25
75961;SHT30;64644;48.914;2.254;2023-06-22T08:32:28;21.76;72.08
75961;SHT30;64644;48.914;2.254;2023-06-22T08:34:57;21.76;72.14
75961;SHT30;64644;48.914;2.254;2023-06-22T08:37:23;21.75;72.22
75961;SHT30;64644;48.914;2.254;2023-06-22T08:39:56;21.80;72.25
75961;SHT30;64644;48.914;2.254;2023-06-22T08:42:21;21.78;72.36
75961;SHT30;64644;48.914;2.254;2023-06-22T08:44:46;21.79;72.40
75961;SHT30;64644;48.914;2.254;2023-06-22T08:47:12;21.79;72.25
75961;SHT30;64644;48.914;2.254;2023-06-22T08:49:37;21.80;72.18
75961;SHT30;64644;48.914;2.254;2023-06-22T08:52:02;21.78;72.42
75961;SHT30;64644;48.914;2.254;2023-06-22T08:54:28;21.80;72.30
75961;SHT30;64644;48.914;2.254;2023-06-22T08:56:53;21.80;72.26
75961;SHT30;64644;48.914;2.254;2023-06-22T08:59:18;21.80;72.26
75961;SHT30;64644;48.914;2.254;2023-06-22T09:01:44;21.76;72.22
75961;SHT30;64644;48.914;2.254;2023-06-22T09:04:11;21.79;72.16
75961;SHT30;64644;48.914;2.254;2023-06-22T09:06:37;21.75;72.27
75961;SHT30;64644;48.914;2.254;2023-06-22T09:09:06;21.76;72.38
75961;SHT30;64644;48.914;2.254;2023-06-22T09:11:31;21.79;72.31
75961;SHT30;64644;48.914;2.254;2023-06-22T09:13:57;21.78;72.16
75961;SHT30;64644;48.914;2.254;2023-06-22T09:16:22;21.79;72.14
75961;SHT30;64644;48.914;2.254;2023-06-22T09:18:48;21.78;72.11
75961;SHT30;64644;48.914;2.254;2023-06-22T09:21:13;21.79;72.21
75961;SHT30;64644;48.914;2.254;2023-06-22T09:23:38;21.78;72.25
75961;SHT30;64644;48.914;2.254;2023-06-22T09:26:04;21.79;72.25
75961;SHT30;64644;48.914;2.254;2023-06-22T09:28:29;21.78;72.15
75961;SHT30;64644;48.914;2.254;2023-06-22T09:30:55;21.79;72.30
75961;SHT30;64644;48.914;2.254;2023-06-22T09:33:23;21.79;72.39
75961;SHT30;64644;48.914;2.254;2023-06-22T09:35:49;21.80;72.44
75961;SHT30;64644;48.914;2.254;2023-06-22T09:38:16;21.83;72.34
75961;SHT30;64644;48.914;2.254;2023-06-22T09:40:41;21.83;72.33
75961;SHT30;64644;48.914;2.254;2023-06-22T09:43:06;21.85;72.21
75961;SHT30;64644;48.914;2.254;2023-06-22T09:45:32;21.83;72.37
75961;SHT30;64644;48.914;2.254;2023-06-22T09:47:57;21.83;72.25
75961;SHT30;64644;48.914;2.254;2023-06-22T09:50:22;21.85;72.30
75961;SHT30;64644;48.914;2.254;2023-06-22T09:52:48;21.85;72.47
75961;SHT30;64644;48.914;2.254;2023-06-22T09:55:16;21.86;72.37
75961;SHT30;64644;48.914;2.254;2023-06-22T09:57:41;21.92;72.45
75961;SHT30;64644;48.914;2.254;2023-06-22T10:00:07;21.96;72.50
75961;SHT30;64644;48.914;2.254;2023-06-22T10:02:38;21.98;72.56
75961;SHT30;64644;48.914;2.254;2023-06-22T10:05:03;22.04;72.55
75961;SHT30;64644;48.914;2.254;2023-06-22T10:07:29;22.07;72.39
75961;SHT30;64644;48.914;2.254;2023-06-22T10:09:54;22.08;72.50
75961;SHT30;64644;48.914;2.254;2023-06-22T10:12:19;22.11;72.59
75961;SHT30;64644;48.914;2.254;2023-06-22T10:14:45;22.15;72.62
75961;SHT30;64644;48.914;2.254;2023-06-22T10:17:10;22.22;72.49
75961;SHT30;64644;48.914;2.254;2023-06-22T10:19:35;22.27;72.38
75961;SHT30;64644;48.914;2.254;2023-06-22T10:22:03;22.32;72.45
75961;SHT30;64644;48.914;2.254;2023-06-22T10:24:29;22.40;72.58
75961;SHT30;64644;48.914;2.254;2023-06-22T10:26:56;22.45;72.50
75961;SHT30;64644;48.914;2.254;2023-06-22T10:29:21;22.52;72.46
75961;SHT30;64644;48.914;2.254;2023-06-22T10:31:47;22.60;72.35
75961;SHT30;64644;48.914;2.254;2023-06-22T10:34:13;22.66;72.20
75961;SHT30;64644;48.914;2.254;2023-06-22T10:36:38;22.72;72.22
75961;SHT30;64644;48.914;2.254;2023-06-22T10:39:04;22.80;72.18
75961;SHT30;64644;48.914;2.254;2023-06-22T10:41:30;22.89;72.00
75961;SHT30;64644;48.914;2.254;2023-06-22T10:43:56;22.99;72.05
75961;SHT30;64644;48.914;2.254;2023-06-22T10:46:21;23.10;72.06
75961;SHT30;64644;48.914;2.254;2023-06-22T10:48:47;23.21;71.86
75961;SHT30;64644;48.914;2.254;2023-06-22T10:51:12;23.34;71.99
75961;SHT30;64644;48.914;2.254;2023-06-22T10:53:37;23.41;71.96
75961;SHT30;64644;48.914;2.254;2023-06-22T10:56:03;23.48;71.61
75961;SHT30;64644;48.914;2.254;2023-06-22T10:58:28;23.49;71.17
75961;SHT30;64644;48.914;2.254;2023-06-22T11:00:54;23.54;71.04
75961;SHT30;64644;48.914;2.254;2023-06-22T11:03:19;23.54;71.09
75961;SHT30;64644;48.914;2.254;2023-06-22T11:05:44;23.54;71.08
75961;SHT30;64644;48.914;2.254;2023-06-22T11:08:11;23.52;70.86
75961;SHT30;64644;48.914;2.254;2023-06-22T11:10:36;23.54;70.68
75961;SHT30;64644;48.914;2.254;2023-06-22T11:13:01;23.55;70.73
75961;SHT30;64644;48.914;2.254;2023-06-22T11:15:29;23.59;70.58
75961;SHT30;64644;48.914;2.254;2023-06-22T11:17:54;23.67;70.52
75961;SHT30;64644;48.914;2.254;2023-06-22T11:20:20;23.67;70.58
75961;SHT30;64644;48.914;2.254;2023-06-22T11:22:45;23.72;70.38
75961;SHT30;64644;48.914;2.254;2023-06-22T11:25:10;23.72;70.16
75961;SHT30;64644;48.914;2.254;2023-06-22T11:27:37;23.73;70.00
75961;SHT30;64644;48.914;2.254;2023-06-22T11:30:02;23.79;70.08
75961;SHT30;64644;48.914;2.254;2023-06-22T11:32:28;23.86;70.10
75961;SHT30;64644;48.914;2.254;2023-06-22T11:34:53;23.86;70.14
75961;SHT30;64644;48.914;2.254;2023-06-22T11:37:18;23.92;70.24
75961;SHT30;64644;48.914;2.254;2023-06-22T11:39:44;23.94;70.31
75961;SHT30;64644;48.914;2.254;2023-06-22T11:42:10;23.99;70.18
75961;SHT30;64644;48.914;2.254;2023-06-22T11:44:35;24.01;70.05
75961;SHT30;64644;48.914;2.254;2023-06-22T11:47:01;24.01;69.97
75961;SHT30;64644;48.914;2.254;2023-06-22T11:49:28;24.04;69.95
75961;SHT30;64644;48.914;2.254;2023-06-22T11:51:54;24.07;69.71
75961;SHT30;64644;48.914;2.254;2023-06-22T11:54:19;24.03;69.44
75961;SHT30;64644;48.914;2.254;2023-06-22T11:56:44;24.04;69.27
75961;SHT30;64644;48.914;2.254;2023-06-22T11:59:10;24.04;69.37
75961;SHT30;64644;48.914;2.254;2023-06-22T12:01:35;24.09;69.31
75961;SHT30;64644;48.914;2.254;2023-06-22T12:04:00;24.10;69.13
75961;SHT30;64644;48.914;2.254;2023-06-22T12:06:26;24.13;69.08
75961;SHT30;64644;48.914;2.254;2023-06-22T12:08:51;24.17;69.02
75961;SHT30;64644;48.914;2.254;2023-06-22T12:11:16;24.20;69.18
75961;SHT30;64644;48.914;2.254;2023-06-22T12:13:42;24.27;68.84
75961;SHT30;64644;48.914;2.254;2023-06-22T12:16:07;24.34;68.88
75961;SHT30;64644;48.914;2.254;2023-06-22T12:18:33;24.41;68.83
75961;SHT30;64644;48.914;2.254;2023-06-22T12:20:58;24.48;69.05
75961;SHT30;64644;48.914;2.254;2023-06-22T12:23:23;24.69;69.02
75961;SHT30;64644;48.914;2.254;2023-06-22T12:25:48;24.84;68.92
75961;SHT30;64644;48.914;2.254;2023-06-22T12:28:14;25.02;68.80
75961;SHT30;64644;48.914;2.254;2023-06-22T12:30:39;25.04;68.31
75961;SHT30;64644;48.914;2.254;2023-06-22T12:33:04;25.04;68.11
75961;SHT30;64644;48.914;2.254;2023-06-22T12:35:30;25.04;68.02
75961;SHT30;64644;48.914;2.254;2023-06-22T12:37:55;25.02;68.13
75961;SHT30;64644;48.914;2.254;2023-06-22T12:40:20;24.97;67.61
75961;SHT30;64644;48.914;2.254;2023-06-22T12:42:46;24.97;67.70
75961;SHT30;64644;48.914;2.254;2023-06-22T12:45:11;24.97;67.50
75961;SHT30;64644;48.914;2.254;2023-06-22T12:47:37;24.90;67.31
75961;SHT30;64644;48.914;2.254;2023-06-22T12:50:02;24.86;67.52
75961;SHT30;64644;48.914;2.254;2023-06-22T12:52:30;24.83;67.83
75961;SHT30;64644;48.914;2.254;2023-06-22T12:54:56;24.76;67.49
75961;SHT30;64644;48.914;2.254;2023-06-22T12:57:23;24.73;67.45
75961;SHT30;64644;48.914;2.254;2023-06-22T12:59:48;24.79;67.55
75961;SHT30;64644;48.914;2.254;2023-06-22T13:02:14;24.77;67.41
75961;SHT30;64644;48.914;2.254;2023-06-22T13:04:39;24.83;67.12
75961;SHT30;64644;48.914;2.254;2023-06-22T13:07:05;24.91;67.53
75961;SHT30;64644;48.914;2.254;2023-06-22T13:09:30;25.00;67.92
75961;SHT30;64644;48.914;2.254;2023-06-22T13:11:56;25.07;67.76
75961;SHT30;64644;48.914;2.254;2023-06-22T13:14:21;25.10;67.49
75961;SHT30;64644;48.914;2.254;2023-06-22T13:16:47;25.10;67.08
75961;SHT30;64644;48.914;2.254;2023-06-22T13:19:12;25.10;66.20
75961;SHT30;64644;48.914;2.254;2023-06-22T13:21:37;25.07;66.59
75961;SHT30;64644;48.914;2.254;2023-06-22T13:24:03;25.04;66.59
75961;SHT30;64644;48.914;2.254;2023-06-22T13:26:28;25.03;66.76
75961;SHT30;64644;48.914;2.254;2023-06-22T13:28:54;24.97;66.48
75961;SHT30;64644;48.914;2.254;2023-06-22T13:31:19;24.94;66.46
75961;SHT30;64644;48.914;2.254;2023-06-22T13:33:45;24.90;66.21
75961;SHT30;64644;48.914;2.254;2023-06-22T13:36:13;24.87;65.97
75961;SHT30;64644;48.914;2.254;2023-06-22T13:38:38;24.89;65.76
75961;SHT30;64644;48.914;2.254;2023-06-22T13:41:04;24.84;66.25
75961;SHT30;64644;48.914;2.254;2023-06-22T13:43:30;24.80;66.55
75961;SHT30;64644;48.914;2.254;2023-06-22T13:45:55;24.80;66.95
75961;SHT30;64644;48.914;2.254;2023-06-22T13:48:20;24.80;67.28
75961;SHT30;64644;48.914;2.254;2023-06-22T13:50:46;24.77;67.66
75961;SHT30;64644;48.914;2.254;2023-06-22T13:53:11;24.79;67.66
75961;SHT30;64644;48.914;2.254;2023-06-22T13:55:36;24.76;67.53
75961;SHT30;64644;48.914;2.254;2023-06-22T13:58:02;24.73;67.22
75961;SHT30;64644;48.914;2.254;2023-06-22T14:00:31;24.71;67.71
75961;SHT30;64644;48.914;2.254;2023-06-22T14:02:56;24.71;67.60
75961;SHT30;64644;48.914;2.254;2023-06-22T14:05:22;24.72;67.58
75961;SHT30;64644;48.914;2.254;2023-06-22T14:07:48;24.68;67.69
75961;SHT30;64644;48.914;2.254;2023-06-22T14:10:14;24.69;67.90
75961;SHT30;64644;48.914;2.254;2023-06-22T14:12:39;24.69;67.83
75961;SHT30;64644;48.914;2.254;2023-06-22T14:15:05;24.68;67.90
75961;SHT30;64644;48.914;2.254;2023-06-22T14:17:30;24.66;67.49
75961;SHT30;64644;48.914;2.254;2023-06-22T14:19:56;24.63;67.56
75961;SHT30;64644;48.914;2.254;2023-06-22T14:22:21;24.65;67.37
75961;SHT30;64644;48.914;2.254;2023-06-22T14:24:48;24.65;67.37
75961;SHT30;64644;48.914;2.254;2023-06-22T14:27:14;24.63;67.34
75961;SHT30;64644;48.914;2.254;2023-06-22T14:29:40;24.62;67.39
75961;SHT30;64644;48.914;2.254;2023-06-22T14:32:05;24.66;67.21
75961;SHT30;64644;48.914;2.254;2023-06-22T14:34:32;24.66;67.11
75961;SHT30;64644;48.914;2.254;2023-06-22T14:36:57;24.71;67.16
75961;SHT30;64644;48.914;2.254;2023-06-22T14:39:23;24.77;67.23
75961;SHT30;64644;48.914;2.254;2023-06-22T14:41:48;24.76;67.01
75961;SHT30;64644;48.914;2.254;2023-06-22T14:44:14;24.82;67.00
75961;SHT30;64644;48.914;2.254;2023-06-22T14:46:40;24.83;66.81
75961;SHT30;64644;48.914;2.254;2023-06-22T14:49:05;24.87;66.60
75961;SHT30;64644;48.914;2.254;2023-06-22T14:51:31;24.89;66.42
75961;SHT30;64644;48.914;2.254;2023-06-22T14:53:56;24.93;66.49
75961;SHT30;64644;48.914;2.254;2023-06-22T14:56:21;25.00;66.23
75961;SHT30;64644;48.914;2.254;2023-06-22T14:58:47;25.03;66.22
75961;SHT30;64644;48.914;2.254;2023-06-22T15:01:12;25.10;66.21
75961;SHT30;64644;48.914;2.254;2023-06-22T15:03:38;25.17;66.13
75961;SHT30;64644;48.914;2.254;2023-06-22T15:06:04;25.20;66.01
75961;SHT30;64644;48.914;2.254;2023-06-22T15:08:29;25.23;65.81
75961;SHT30;64644;48.914;2.254;2023-06-22T15:10:58;25.25;65.70
75961;SHT30;64644;48.914;2.254;2023-06-22T15:13:24;25.28;65.70
75961;SHT30;64644;48.914;2.254;2023-06-22T15:15:50;25.31;65.99
75961;SHT30;64644;48.914;2.254;2023-06-22T15:18:16;25.37;65.94
75961;SHT30;64644;48.914;2.254;2023-06-22T15:20:42;25.39;65.74
75961;SHT30;64644;48.914;2.254;2023-06-22T15:23:11;25.44;65.44